createdAt,value
2022-11-23T00:00:48.199Z,1.67
2022-11-23T00:03:16.562Z,1.60
2022-11-23T00:05:44.444Z,1.80
2022-11-23T00:08:13.542Z,1.80
2022-11-23T00:10:41.313Z,1.40
2022-11-23T00:13:09.141Z,1.83
2022-11-23T00:15:36.931Z,2.37
2022-11-23T00:18:04.863Z,2.10
2022-11-23T00:20:32.805Z,1.70
2022-11-23T00:23:00.557Z,2.57
2022-11-23T00:25:29.758Z,1.80
2022-11-23T00:27:57.587Z,1.70
2022-11-23T00:30:25.335Z,1.63
2022-11-23T00:32:53.228Z,1.33
2022-11-23T00:35:21.150Z,1.80
2022-11-23T00:37:48.965Z,1.60
2022-11-23T00:40:17.358Z,1.83
2022-11-23T00:42:46.559Z,1.70
2022-11-23T00:45:14.464Z,1.80
2022-11-23T00:47:42.222Z,1.70
2022-11-23T00:50:10.684Z,1.57
2022-11-23T00:52:38.560Z,2.20
2022-11-23T00:55:07.109Z,1.93
2022-11-23T00:57:34.921Z,1.83
2022-11-23T01:00:04.743Z,1.50
2022-11-23T01:02:32.492Z,1.70
2022-11-23T01:05:00.361Z,1.53
2022-11-23T01:07:30.432Z,1.60
2022-11-23T01:09:58.500Z,1.70
2022-11-23T01:12:26.284Z,2.30
2022-11-23T01:14:54.831Z,1.30
2022-11-23T01:17:23.967Z,1.90
2022-11-23T01:19:51.814Z,1.73
2022-11-23T01:22:20.152Z,1.63
2022-11-23T01:24:47.919Z,1.90
2022-11-23T01:27:15.684Z,1.67
2022-11-23T01:29:43.567Z,1.30
2022-11-23T01:32:11.372Z,1.60
2022-11-23T01:34:40.527Z,1.80
2022-11-23T01:37:08.247Z,1.57
2022-11-23T01:39:36.149Z,1.73
2022-11-23T01:42:06.851Z,1.57
2022-11-23T01:44:35.982Z,1.90
2022-11-23T01:47:06.235Z,1.73
2022-11-23T01:49:38.508Z,2.37
2022-11-23T01:52:10.823Z,2.03
2022-11-23T01:54:44.640Z,1.63
2022-11-23T01:57:17.479Z,1.83
2022-11-23T01:59:46.273Z,1.10
2022-11-23T02:02:15.355Z,1.83
2022-11-23T02:04:45.824Z,1.30
2022-11-23T02:07:17.367Z,1.43
2022-11-23T02:09:46.753Z,2.03
2022-11-23T02:12:15.229Z,1.40
2022-11-23T02:14:43.759Z,2.20
2022-11-23T02:17:11.583Z,1.60
2022-11-23T02:19:49.205Z,1.57
2022-11-23T02:22:27.953Z,1.30
2022-11-23T02:24:56.687Z,1.93
2022-11-23T02:27:27.848Z,1.50
2022-11-23T02:29:57.020Z,1.40
2022-11-23T02:32:26.263Z,1.40
2022-11-23T02:34:54.057Z,1.00
2022-11-23T02:37:21.878Z,1.43
2022-11-23T02:39:52.172Z,1.10
2022-11-23T02:42:20.242Z,1.50
2022-11-23T02:44:54.957Z,1.90
2022-11-23T02:47:22.867Z,1.37
2022-11-23T02:49:50.697Z,1.20
2022-11-23T02:52:19.322Z,1.20
2022-11-23T02:54:47.445Z,0.87
2022-11-23T02:57:15.479Z,1.27
2022-11-23T02:59:43.269Z,1.30
2022-11-23T03:02:12.487Z,1.90
2022-11-23T03:04:40.236Z,1.23
2022-11-23T03:07:08.117Z,1.57
2022-11-23T03:09:35.994Z,1.33
2022-11-23T03:12:03.819Z,1.03
2022-11-23T03:14:31.685Z,1.30
2022-11-23T03:16:59.710Z,1.20
2022-11-23T03:19:28.962Z,1.20
2022-11-23T03:21:56.868Z,1.37
2022-11-23T03:24:24.659Z,1.10
2022-11-23T03:26:52.513Z,1.10
2022-11-23T03:29:20.319Z,1.33
2022-11-23T03:31:48.139Z,1.07
2022-11-23T03:34:15.912Z,1.53
2022-11-23T03:36:45.062Z,1.20
2022-11-23T03:39:13.019Z,1.07
2022-11-23T03:41:40.777Z,1.20
2022-11-23T03:44:08.649Z,1.37
2022-11-23T03:46:36.399Z,1.23
2022-11-23T03:49:04.573Z,1.00
2022-11-23T03:51:32.458Z,1.47
2022-11-23T03:54:01.605Z,1.00
2022-11-23T03:56:29.503Z,1.40
2022-11-23T03:58:57.257Z,1.20
2022-11-23T04:01:25.823Z,1.00
2022-11-23T04:03:53.957Z,0.90
2022-11-23T04:06:21.845Z,1.00
2022-11-23T04:08:49.615Z,1.00
2022-11-23T04:11:18.765Z,1.37
2022-11-23T04:13:46.561Z,1.13
2022-11-23T04:16:14.410Z,1.00
2022-11-23T04:18:42.194Z,1.17
2022-11-23T04:21:10.400Z,1.20
2022-11-23T04:23:38.191Z,1.27
2022-11-23T04:26:06.543Z,1.10
2022-11-23T04:28:35.664Z,1.13
2022-11-23T04:31:03.452Z,2.57
2022-11-23T04:33:31.688Z,1.40
2022-11-23T04:35:59.524Z,1.27
2022-11-23T04:38:27.444Z,1.10
2022-11-23T04:40:55.383Z,0.90
2022-11-23T04:43:23.176Z,0.90
2022-11-23T04:45:52.377Z,1.10
2022-11-23T04:48:20.171Z,1.00
2022-11-23T04:50:49.895Z,1.20
2022-11-23T04:53:19.683Z,1.00
2022-11-23T04:55:47.803Z,1.47
2022-11-23T04:58:15.673Z,1.13
2022-11-23T05:00:43.657Z,1.10
2022-11-23T05:03:12.928Z,1.10
2022-11-23T05:05:41.770Z,0.90
2022-11-23T05:08:10.479Z,1.10
2022-11-23T05:10:38.819Z,0.87
2022-11-23T05:13:06.739Z,1.20
2022-11-23T05:15:34.486Z,1.10
2022-11-23T05:18:02.896Z,1.03
2022-11-23T05:20:32.345Z,1.17
2022-11-23T05:23:00.142Z,1.20
2022-11-23T05:25:28.106Z,0.90
2022-11-23T05:27:55.887Z,1.00
2022-11-23T05:30:23.637Z,1.00
2022-11-23T05:32:51.543Z,1.00
2022-11-23T05:35:19.424Z,1.27
2022-11-23T05:37:48.748Z,1.27
2022-11-23T05:40:16.524Z,1.50
2022-11-23T05:42:44.277Z,1.73
2022-11-23T05:45:12.110Z,1.20
2022-11-23T05:47:39.973Z,1.07
2022-11-23T05:50:09.032Z,1.23
2022-11-23T05:52:36.810Z,1.13
2022-11-23T05:55:06.316Z,1.40
2022-11-23T05:57:34.087Z,1.40
2022-11-23T06:00:01.829Z,1.20
2022-11-23T06:02:30.041Z,1.30
2022-11-23T06:04:57.875Z,1.00
2022-11-23T06:07:25.731Z,1.17
2022-11-23T06:09:53.474Z,1.20
2022-11-23T06:12:23.692Z,1.47
2022-11-23T06:14:51.795Z,1.77
2022-11-23T06:17:19.598Z,2.03
2022-11-23T06:19:47.471Z,1.90
2022-11-23T06:22:16.094Z,1.80
2022-11-23T06:24:44.250Z,1.47
2022-11-23T06:27:17.817Z,1.77
2022-11-23T06:29:47.847Z,1.60
2022-11-23T06:32:16.139Z,1.40
2022-11-23T06:34:44.009Z,1.30
2022-11-23T06:37:12.531Z,1.40
2022-11-23T06:39:40.577Z,1.63
2022-11-23T06:42:31.244Z,0.97
2022-11-23T06:44:57.528Z,1.27
2022-11-23T06:47:26.542Z,1.70
2022-11-23T06:49:54.510Z,1.93
2022-11-23T06:52:22.313Z,2.13
2022-11-23T06:54:50.080Z,2.50
2022-11-23T06:57:17.863Z,2.30
2022-11-23T06:59:46.415Z,1.90
2022-11-23T07:02:15.631Z,1.90
2022-11-23T07:04:43.412Z,2.30
2022-11-23T07:07:11.442Z,2.30
2022-11-23T07:09:39.239Z,2.27
2022-11-23T07:12:07.512Z,1.83
2022-11-23T07:14:35.401Z,2.30
2022-11-23T07:17:03.266Z,2.10
2022-11-23T07:19:32.758Z,2.10
2022-11-23T07:22:00.854Z,2.60
2022-11-23T07:24:30.751Z,2.57
2022-11-23T07:27:02.331Z,2.53
2022-11-23T07:29:30.534Z,1.90
2022-11-23T07:31:58.413Z,1.77
2022-11-23T07:34:26.169Z,2.10
2022-11-23T07:37:00.547Z,1.90
2022-11-23T07:39:54.989Z,2.00
2022-11-23T07:42:32.340Z,2.10
2022-11-23T07:45:01.642Z,2.87
2022-11-23T07:47:29.409Z,2.30
2022-11-23T07:49:57.196Z,2.07
2022-11-23T07:52:26.423Z,2.20
2022-11-23T07:54:54.211Z,2.30
2022-11-23T07:57:21.995Z,2.30
2022-11-23T07:59:49.752Z,2.40
2022-11-23T08:02:17.623Z,2.70
2022-11-23T08:04:45.416Z,2.27
2022-11-23T08:07:13.248Z,2.43
2022-11-23T08:09:42.654Z,2.60
2022-11-23T08:12:10.414Z,2.67
2022-11-23T08:14:38.199Z,2.50
2022-11-23T08:17:06.309Z,2.40
2022-11-23T08:19:34.064Z,2.20
2022-11-23T08:22:01.814Z,1.60
2022-11-23T08:24:39.954Z,1.86
2022-11-23T08:27:09.060Z,2.10
2022-11-23T08:29:37.295Z,1.63
2022-11-23T08:32:08.648Z,1.77
2022-11-23T08:34:36.427Z,1.73
2022-11-23T08:37:04.204Z,1.80
2022-11-23T08:39:32.000Z,1.80
2022-11-23T08:41:59.732Z,1.93
2022-11-23T08:44:29.320Z,1.37
2022-11-23T08:46:57.099Z,1.90
2022-11-23T08:49:24.916Z,1.77
2022-11-23T08:51:52.730Z,1.67
2022-11-23T08:54:20.564Z,1.70
2022-11-23T08:56:48.304Z,1.67
2022-11-23T08:59:17.065Z,1.80
2022-11-23T09:01:46.659Z,1.63
2022-11-23T09:04:20.331Z,1.60
2022-11-23T09:06:48.659Z,1.57
2022-11-23T09:09:16.482Z,1.80
2022-11-23T09:11:44.269Z,1.87
2022-11-23T09:14:12.086Z,1.60
2022-11-23T09:16:39.873Z,1.10
2022-11-23T09:19:11.881Z,1.40
2022-11-23T09:21:39.771Z,1.27
2022-11-23T09:24:08.545Z,1.80
2022-11-23T09:26:37.558Z,1.40
2022-11-23T09:29:05.697Z,1.50
2022-11-23T09:31:33.631Z,1.13
2022-11-23T09:34:01.610Z,1.33
2022-11-23T09:36:31.026Z,1.23
2022-11-23T09:38:58.834Z,1.27
2022-11-23T09:41:54.687Z,1.10
2022-11-23T09:44:28.742Z,0.90
2022-11-23T09:47:12.295Z,1.20
2022-11-23T09:49:50.968Z,1.07
2022-11-23T09:52:25.011Z,1.50
2022-11-23T09:54:56.623Z,0.98
2022-11-23T09:57:27.837Z,1.20
2022-11-23T10:00:01.173Z,1.27
2022-11-23T10:02:29.944Z,0.97
2022-11-23T10:05:00.650Z,1.13
2022-11-23T10:07:45.091Z,1.27
2022-11-23T10:10:29.684Z,1.00
2022-11-23T10:13:05.963Z,0.97
2022-11-23T10:15:40.137Z,0.90
2022-11-23T10:18:20.800Z,0.73
2022-11-23T10:20:59.365Z,1.43
2022-11-23T10:23:46.910Z,1.33
2022-11-23T10:26:17.428Z,0.80
2022-11-23T10:28:46.988Z,0.97
2022-11-23T10:31:17.390Z,1.17
2022-11-23T10:33:54.054Z,1.20
2022-11-23T10:36:21.842Z,1.30
2022-11-23T10:38:56.003Z,0.90
2022-11-23T10:41:23.765Z,0.87
2022-11-23T10:43:55.078Z,0.90
2022-11-23T10:46:31.896Z,0.90
2022-11-23T10:49:17.783Z,1.08
2022-11-23T10:51:53.803Z,1.05
2022-11-23T10:54:27.586Z,0.90
2022-11-23T10:56:56.545Z,1.00
2022-11-23T10:59:42.284Z,1.50
2022-11-23T11:02:17.960Z,0.83
2022-11-23T11:04:46.846Z,1.00
2022-11-23T11:07:27.168Z,1.53
2022-11-23T11:09:57.922Z,0.87
2022-11-23T11:12:26.199Z,1.20
2022-11-23T11:15:02.002Z,1.00
2022-11-23T11:17:39.334Z,1.20
2022-11-23T11:20:38.020Z,0.90
2022-11-23T11:23:18.716Z,0.90
2022-11-23T11:25:48.865Z,1.00
2022-11-23T11:28:34.090Z,1.20
2022-11-23T11:31:16.451Z,0.90
2022-11-23T11:33:53.552Z,0.90
2022-11-23T11:36:23.773Z,1.00
2022-11-23T11:39:17.346Z,1.00
2022-11-23T11:41:46.546Z,0.87
2022-11-23T11:44:21.082Z,1.07
2022-11-23T11:46:54.917Z,1.13
2022-11-23T11:49:27.132Z,0.90
2022-11-23T11:52:00.046Z,1.03
2022-11-23T11:54:33.083Z,0.77
2022-11-23T11:57:07.186Z,1.00
2022-11-23T11:59:42.847Z,0.80
2022-11-23T12:02:20.846Z,1.30
2022-11-23T12:04:57.344Z,0.60
2022-11-23T12:07:30.630Z,1.00
2022-11-23T12:10:04.712Z,0.90
2022-11-23T12:12:36.508Z,0.67
2022-11-23T12:15:26.306Z,1.10
2022-11-23T12:18:11.844Z,1.17
2022-11-23T12:20:49.550Z,0.97
2022-11-23T12:23:28.799Z,1.30
2022-11-23T12:26:13.299Z,1.33
2022-11-23T12:28:58.419Z,1.20
2022-11-23T12:31:39.290Z,0.80
2022-11-23T12:34:26.562Z,0.90
2022-11-23T12:37:17.960Z,0.77
2022-11-23T12:40:10.618Z,0.80
2022-11-23T12:42:43.772Z,0.97
2022-11-23T12:45:33.544Z,0.93
2022-11-23T12:48:15.406Z,0.97
2022-11-23T12:50:50.716Z,1.03
2022-11-23T12:53:32.582Z,1.00
2022-11-23T12:56:10.337Z,0.80
2022-11-23T12:58:39.423Z,1.20
2022-11-23T13:01:13.678Z,1.50
2022-11-23T13:04:26.253Z,7.93
2022-11-23T13:07:47.630Z,1.30
2022-11-23T13:10:37.279Z,0.93
2022-11-23T13:13:27.603Z,0.90
2022-11-23T13:16:16.946Z,0.73
2022-11-23T13:19:01.561Z,2.17
2022-11-23T13:21:37.351Z,1.57
2022-11-23T13:24:06.287Z,0.90
2022-11-23T13:26:34.118Z,1.00
2022-11-23T13:29:36.819Z,0.87
2022-11-23T13:32:36.531Z,0.80
2022-11-23T13:35:04.530Z,0.80
2022-11-23T13:37:52.300Z,0.73
2022-11-23T13:40:23.696Z,0.70
2022-11-23T13:42:53.366Z,0.90
2022-11-23T13:45:39.087Z,0.70
2022-11-23T13:48:55.471Z,1.30
2022-11-23T13:51:08.822Z,0.97
2022-11-23T13:53:39.568Z,0.60
2022-11-23T13:56:33.711Z,0.90
2022-11-23T13:59:26.579Z,0.90
2022-11-23T14:02:28.119Z,0.97
2022-11-23T14:05:29.483Z,0.73
2022-11-23T14:08:02.600Z,0.63
2022-11-23T14:10:32.720Z,0.80
2022-11-23T14:13:05.960Z,0.90
2022-11-23T14:15:36.697Z,0.60
2022-11-23T14:18:38.448Z,0.80
2022-11-23T14:21:13.928Z,0.70
2022-11-23T14:24:18.955Z,0.60
2022-11-23T14:27:12.172Z,0.80
2022-11-23T14:30:06.327Z,0.80
2022-11-23T14:32:46.888Z,0.60
2022-11-23T14:35:26.731Z,1.10
2022-11-23T14:38:33.426Z,0.70
2022-11-23T14:41:08.554Z,0.70
2022-11-23T14:43:41.100Z,0.80
2022-11-23T14:46:15.736Z,0.93
2022-11-23T14:48:43.528Z,0.97
2022-11-23T14:51:14.290Z,1.10
2022-11-23T14:53:46.904Z,0.77
2022-11-23T14:56:31.982Z,0.80
2022-11-23T14:59:03.548Z,0.80
2022-11-23T15:01:31.711Z,0.80
2022-11-23T15:04:01.058Z,0.90
2022-11-23T15:06:33.549Z,1.17
2022-11-23T15:09:09.688Z,1.10
2022-11-23T15:11:39.183Z,1.00
2022-11-23T15:14:18.966Z,1.03
2022-11-23T15:16:47.431Z,1.40
2022-11-23T15:19:19.310Z,1.50
2022-11-23T15:21:47.626Z,1.00
2022-11-23T15:24:22.778Z,1.33
2022-11-23T15:26:52.457Z,1.20
2022-11-23T15:29:34.599Z,1.50
2022-11-23T15:34:52.392Z,0.87
2022-11-23T15:37:20.453Z,1.83
2022-11-23T15:39:48.764Z,1.50
2022-11-23T15:42:19.940Z,1.60
2022-11-23T15:44:51.104Z,1.70
2022-11-23T15:47:26.051Z,1.70
2022-11-23T15:49:59.737Z,1.70
2022-11-23T15:52:30.989Z,2.70
2022-11-23T15:55:08.842Z,3.37
2022-11-23T15:57:40.879Z,2.57
2022-11-23T16:00:19.404Z,2.57
2022-11-23T16:02:47.395Z,3.30
2022-11-23T16:05:17.406Z,2.33
2022-11-23T16:07:53.538Z,2.30
2022-11-23T16:10:26.077Z,2.30
2022-11-23T16:12:56.675Z,1.73
2022-11-23T16:15:41.227Z,2.50
2022-11-23T16:18:21.440Z,2.57
2022-11-23T16:20:52.095Z,2.43
2022-11-23T16:23:22.320Z,2.67
2022-11-23T16:25:56.834Z,2.77
2022-11-23T16:28:29.528Z,1.97
2022-11-23T16:30:57.776Z,1.90
2022-11-23T16:33:26.179Z,1.80
2022-11-23T16:35:54.341Z,2.47
2022-11-23T16:38:22.183Z,2.63
2022-11-23T16:40:50.561Z,1.83
2022-11-23T16:43:19.140Z,3.17
2022-11-23T16:45:51.938Z,2.93
2022-11-23T16:48:39.295Z,3.10
2022-11-23T16:51:07.988Z,3.60
2022-11-23T16:54:07.769Z,3.57
2022-11-23T16:56:25.946Z,3.10
2022-11-23T16:58:54.814Z,2.57
2022-11-23T17:01:26.078Z,2.50
2022-11-23T17:03:54.461Z,2.53
2022-11-23T17:06:23.752Z,1.80
2022-11-23T17:09:00.548Z,2.60
2022-11-23T17:11:36.091Z,2.40
2022-11-23T17:14:05.536Z,2.57
2022-11-23T17:16:35.057Z,2.43
2022-11-23T17:19:03.098Z,2.40
2022-11-23T17:21:30.927Z,3.33
2022-11-23T17:23:59.277Z,2.63
2022-11-23T17:26:32.463Z,2.20
2022-11-23T17:29:03.365Z,2.63
2022-11-23T17:31:35.928Z,4.37
2022-11-23T17:34:03.804Z,2.50
2022-11-23T17:36:32.420Z,2.77
2022-11-23T17:39:00.516Z,3.20
2022-11-23T17:41:28.405Z,3.17
2022-11-23T17:43:58.428Z,2.80
2022-11-23T17:46:27.536Z,2.10
2022-11-23T17:48:58.669Z,2.20
2022-11-23T17:51:28.198Z,2.00
2022-11-23T17:53:56.112Z,2.33
2022-11-23T17:56:26.049Z,1.70
2022-11-23T17:58:54.229Z,2.17
2022-11-23T18:01:23.886Z,2.43
2022-11-23T18:03:52.120Z,2.73
2022-11-23T18:06:23.382Z,2.67
2022-11-23T18:08:52.576Z,2.80
2022-11-23T18:11:21.827Z,2.20
2022-11-23T18:13:50.471Z,2.37
2022-11-23T18:16:20.004Z,2.40
2022-11-23T18:18:47.975Z,2.47
2022-11-23T18:21:16.369Z,2.90
2022-11-23T18:23:45.930Z,2.43
2022-11-23T18:26:20.256Z,2.47
2022-11-23T18:28:48.750Z,2.83
2022-11-23T18:31:16.950Z,1.97
2022-11-23T18:33:45.129Z,2.47
2022-11-23T18:36:13.624Z,3.13
2022-11-23T18:38:42.185Z,3.10
2022-11-23T18:41:12.121Z,2.60
2022-11-23T18:43:39.971Z,2.87
2022-11-23T18:46:10.083Z,2.40
2022-11-23T18:48:38.307Z,4.20
2022-11-23T18:51:11.451Z,9.00
2022-11-23T18:53:39.222Z,10.43
2022-11-23T18:56:08.589Z,9.90
2022-11-23T18:58:39.477Z,11.40
2022-11-23T19:01:12.260Z,9.20
2022-11-23T19:03:41.882Z,6.60
2022-11-23T19:06:11.922Z,5.07
2022-11-23T19:08:42.796Z,4.37
2022-11-23T19:11:17.453Z,3.93
2022-11-23T19:13:48.235Z,4.27
2022-11-23T19:16:17.812Z,4.00
2022-11-23T19:18:46.023Z,3.37
2022-11-23T19:21:15.334Z,3.20
2022-11-23T19:23:43.699Z,3.50
2022-11-23T19:26:11.606Z,4.60
2022-11-23T19:28:44.402Z,3.70
2022-11-23T19:31:15.211Z,3.27
2022-11-23T19:33:43.380Z,3.23
2022-11-23T19:36:13.614Z,3.20
2022-11-23T19:38:41.717Z,2.77
2022-11-23T19:41:09.801Z,2.50
2022-11-23T19:43:37.771Z,2.57
2022-11-23T19:46:07.506Z,2.60
2022-11-23T19:48:36.637Z,2.43
2022-11-23T19:51:06.606Z,2.30
2022-11-23T19:53:35.947Z,2.10
2022-11-23T19:56:05.285Z,2.60
2022-11-23T19:58:34.247Z,2.10
2022-11-23T20:01:02.914Z,1.67
2022-11-23T20:03:31.220Z,1.30
2022-11-23T20:06:02.282Z,1.23
2022-11-23T20:08:30.092Z,1.00
2022-11-23T20:10:57.943Z,0.90
2022-11-23T20:13:26.074Z,1.00
2022-11-23T20:15:53.936Z,0.83
2022-11-23T20:18:26.882Z,1.10
2022-11-23T20:20:57.552Z,0.97
2022-11-23T20:23:26.924Z,1.13
2022-11-23T20:25:57.511Z,1.20
2022-11-23T20:28:25.990Z,1.00
2022-11-23T20:30:53.934Z,0.90
2022-11-23T20:33:22.201Z,0.93
2022-11-23T20:35:50.059Z,0.90
2022-11-23T20:38:18.503Z,1.50
2022-11-23T20:40:47.625Z,1.07
2022-11-23T20:43:15.444Z,1.40
2022-11-23T20:45:43.284Z,0.90
2022-11-23T20:48:11.058Z,1.07
2022-11-23T20:50:39.078Z,1.50
2022-11-23T20:53:06.917Z,1.40
2022-11-23T20:55:34.738Z,0.80
2022-11-23T20:58:03.829Z,1.10
2022-11-23T21:00:31.762Z,1.30
2022-11-23T21:02:59.661Z,1.30
2022-11-23T21:05:27.756Z,1.10
2022-11-23T21:07:55.592Z,0.87
2022-11-23T21:10:41.023Z,0.80
2022-11-23T21:13:48.498Z,0.90
2022-11-23T21:16:17.325Z,0.90
2022-11-23T21:18:45.174Z,1.13
2022-11-23T21:21:13.231Z,0.90
2022-11-23T21:23:41.026Z,0.77
2022-11-23T21:26:08.811Z,1.07
2022-11-23T21:28:37.903Z,1.00
2022-11-23T21:31:08.594Z,0.90
2022-11-23T21:33:37.184Z,1.30
2022-11-23T21:36:05.880Z,0.90
2022-11-23T21:38:35.992Z,0.87
2022-11-23T21:41:04.910Z,0.90
2022-11-23T21:43:33.131Z,0.90
2022-11-23T21:46:03.131Z,1.07
2022-11-23T21:48:31.221Z,0.73
2022-11-23T21:51:03.619Z,1.10
2022-11-23T21:53:31.925Z,1.07
2022-11-23T21:56:03.872Z,1.23
2022-11-23T21:58:32.335Z,0.97
2022-11-23T22:01:05.709Z,1.30
2022-11-23T22:03:37.314Z,1.00
2022-11-23T22:06:06.490Z,1.90
2022-11-23T22:08:34.728Z,1.20
2022-11-23T22:11:11.519Z,1.70
2022-11-23T22:13:40.545Z,1.60
2022-11-23T22:16:18.677Z,1.30
2022-11-23T22:18:49.401Z,1.27
2022-11-23T22:21:21.804Z,1.13
2022-11-23T22:23:49.700Z,1.40
2022-11-23T22:26:19.663Z,1.30
2022-11-23T22:28:49.599Z,1.10
2022-11-23T22:31:20.634Z,1.20
2022-11-23T22:33:49.035Z,1.30
2022-11-23T22:36:18.906Z,0.90
2022-11-23T22:38:47.372Z,0.93
2022-11-23T22:41:16.686Z,1.00
2022-11-23T22:43:44.760Z,1.00
2022-11-23T22:46:15.204Z,1.20
2022-11-23T22:48:46.210Z,0.80
2022-11-23T22:51:16.428Z,1.00
2022-11-23T22:53:45.140Z,1.17
2022-11-23T22:56:14.547Z,0.80
2022-11-23T23:01:27.073Z,1.03
2022-11-23T23:03:57.655Z,0.70
2022-11-23T23:06:27.211Z,1.33
2022-11-23T23:08:56.739Z,1.10
2022-11-23T23:11:25.716Z,1.20
2022-11-23T23:13:53.634Z,1.40
2022-11-23T23:16:21.781Z,1.20
2022-11-23T23:18:49.907Z,1.23
2022-11-23T23:21:21.792Z,0.90
2022-11-23T23:23:51.067Z,1.13
2022-11-23T23:26:21.174Z,0.90
2022-11-23T23:28:49.187Z,0.70
2022-11-23T23:31:18.441Z,1.17
2022-11-23T23:33:46.746Z,1.33
2022-11-23T23:36:19.347Z,1.00
2022-11-23T23:38:47.187Z,0.60
2022-11-23T23:41:15.458Z,1.13
2022-11-23T23:43:43.874Z,1.27
2022-11-23T23:46:13.456Z,0.67
2022-11-23T23:48:42.195Z,0.50
2022-11-23T23:51:11.913Z,1.13
2022-11-23T23:53:41.144Z,1.10
2022-11-23T23:56:13.308Z,0.70
2022-11-23T23:58:41.165Z,1.50
